sensor_id;sensor_type;location;lat;lon;timestamp;temperature;humidity
26821;DHT22;37186;51.394;5.454;2022-11-23T00:02:05;10.60;86.80
26821;DHT22;37186;51.394;5.454;2022-11-23T00:05:06;10.60;86.80
26821;DHT22;37186;51.394;5.454;2022-11-23T00:08:07;10.60;86.80
26821;DHT22;37186;51.394;5.454;2022-11-23T00:11:08;10.60;86.80
26821;DHT22;37186;51.394;5.454;2022-11-23T00:14:09;10.60;86.80
26821;DHT22;37186;51.394;5.454;2022-11-23T00:17:09;10.60;86.80
26821;DHT22;37186;51.394;5.454;2022-11-23T00:20:10;10.60;86.80
26821;DHT22;37186;51.394;5.454;2022-11-23T00:23:10;10.60;86.80
26821;DHT22;37186;51.394;5.454;2022-11-23T00:26:12;10.60;86.80
26821;DHT22;37186;51.394;5.454;2022-11-23T00:29:12;10.60;86.80
26821;DHT22;37186;51.394;5.454;2022-11-23T00:32:13;10.60;86.80
26821;DHT22;37186;51.394;5.454;2022-11-23T00:35:13;10.60;86.80
26821;DHT22;37186;51.394;5.454;2022-11-23T00:38:14;10.60;86.80
26821;DHT22;37186;51.394;5.454;2022-11-23T00:41:17;10.60;86.70
26821;DHT22;37186;51.394;5.454;2022-11-23T00:44:18;10.60;86.80
26821;DHT22;37186;51.394;5.454;2022-11-23T00:47:19;10.60;86.70
26821;DHT22;37186;51.394;5.454;2022-11-23T00:50:19;10.60;86.80
26821;DHT22;37186;51.394;5.454;2022-11-23T00:53:20;10.60;86.70
26821;DHT22;37186;51.394;5.454;2022-11-23T00:56:20;10.60;86.80
26821;DHT22;37186;51.394;5.454;2022-11-23T00:59:21;10.60;86.80
26821;DHT22;37186;51.394;5.454;2022-11-23T01:02:22;10.60;86.80
26821;DHT22;37186;51.394;5.454;2022-11-23T01:05:22;10.60;86.70
26821;DHT22;37186;51.394;5.454;2022-11-23T01:08:23;10.60;86.70
26821;DHT22;37186;51.394;5.454;2022-11-23T01:11:25;10.60;86.80
26821;DHT22;37186;51.394;5.454;2022-11-23T01:14:26;10.60;86.80
26821;DHT22;37186;51.394;5.454;2022-11-23T01:17:27;10.70;86.90
26821;DHT22;37186;51.394;5.454;2022-11-23T01:20:27;10.60;86.80
26821;DHT22;37186;51.394;5.454;2022-11-23T01:23:28;10.60;86.80
26821;DHT22;37186;51.394;5.454;2022-11-23T01:26:29;10.70;86.80
26821;DHT22;37186;51.394;5.454;2022-11-23T01:29:30;10.70;86.80
26821;DHT22;37186;51.394;5.454;2022-11-23T01:32:30;10.70;86.80
26821;DHT22;37186;51.394;5.454;2022-11-23T01:35:31;10.70;86.80
26821;DHT22;37186;51.394;5.454;2022-11-23T01:38:31;10.70;86.80
26821;DHT22;37186;51.394;5.454;2022-11-23T01:41:37;10.70;87.60
26821;DHT22;37186;51.394;5.454;2022-11-23T01:44:40;10.70;86.80
26821;DHT22;37186;51.394;5.454;2022-11-23T01:47:41;10.70;86.80
26821;DHT22;37186;51.394;5.454;2022-11-23T01:50:42;10.70;86.80
26821;DHT22;37186;51.394;5.454;2022-11-23T01:53:45;10.70;86.80
26821;DHT22;37186;51.394;5.454;2022-11-23T01:56:51;10.70;86.80
26821;DHT22;37186;51.394;5.454;2022-11-23T01:59:54;10.70;86.80
26821;DHT22;37186;51.394;5.454;2022-11-23T02:02:57;10.70;86.80
26821;DHT22;37186;51.394;5.454;2022-11-23T02:06:03;10.70;86.80
26821;DHT22;37186;51.394;5.454;2022-11-23T02:09:04;10.70;86.80
26821;DHT22;37186;51.394;5.454;2022-11-23T02:12:12;10.70;86.80
26821;DHT22;37186;51.394;5.454;2022-11-23T02:15:13;10.80;86.90
26821;DHT22;37186;51.394;5.454;2022-11-23T02:18:23;10.70;86.80
26821;DHT22;37186;51.394;5.454;2022-11-23T02:21:25;10.70;86.80
26821;DHT22;37186;51.394;5.454;2022-11-23T02:24:30;10.70;86.80
26821;DHT22;37186;51.394;5.454;2022-11-23T02:27:32;10.70;86.80
26821;DHT22;37186;51.394;5.454;2022-11-23T02:30:34;10.70;86.80
26821;DHT22;37186;51.394;5.454;2022-11-23T02:33:39;10.70;86.80
26821;DHT22;37186;51.394;5.454;2022-11-23T02:36:41;10.80;86.80
26821;DHT22;37186;51.394;5.454;2022-11-23T02:39:48;10.70;86.80
26821;DHT22;37186;51.394;5.454;2022-11-23T02:42:50;10.80;86.80
26821;DHT22;37186;51.394;5.454;2022-11-23T02:45:58;10.80;86.90
26821;DHT22;37186;51.394;5.454;2022-11-23T02:49:00;10.80;87.60
26821;DHT22;37186;51.394;5.454;2022-11-23T02:52:01;10.80;86.90
26821;DHT22;37186;51.394;5.454;2022-11-23T02:55:02;10.80;86.80
26821;DHT22;37186;51.394;5.454;2022-11-23T02:58:04;10.80;86.80
26821;DHT22;37186;51.394;5.454;2022-11-23T03:01:05;10.80;86.80
26821;DHT22;37186;51.394;5.454;2022-11-23T03:04:06;10.80;86.80
26821;DHT22;37186;51.394;5.454;2022-11-23T03:07:06;10.80;86.90
26821;DHT22;37186;51.394;5.454;2022-11-23T03:10:08;10.80;86.80
26821;DHT22;37186;51.394;5.454;2022-11-23T03:13:08;10.80;86.80
26821;DHT22;37186;51.394;5.454;2022-11-23T03:16:09;10.80;86.80
26821;DHT22;37186;51.394;5.454;2022-11-23T03:19:10;10.80;86.80
26821;DHT22;37186;51.394;5.454;2022-11-23T03:22:10;10.80;86.80
26821;DHT22;37186;51.394;5.454;2022-11-23T03:25:11;10.80;86.80
26821;DHT22;37186;51.394;5.454;2022-11-23T03:28:11;10.80;86.80
26821;DHT22;37186;51.394;5.454;2022-11-23T03:31:12;10.80;86.80
26821;DHT22;37186;51.394;5.454;2022-11-23T03:34:12;10.80;86.80
26821;DHT22;37186;51.394;5.454;2022-11-23T03:37:13;10.80;86.90
26821;DHT22;37186;51.394;5.454;2022-11-23T03:40:13;10.80;86.80
26821;DHT22;37186;51.394;5.454;2022-11-23T03:43:14;10.80;86.80
26821;DHT22;37186;51.394;5.454;2022-11-23T03:46:15;10.80;86.80
26821;DHT22;37186;51.394;5.454;2022-11-23T03:49:16;10.80;86.80
26821;DHT22;37186;51.394;5.454;2022-11-23T03:52:16;10.80;86.80
26821;DHT22;37186;51.394;5.454;2022-11-23T03:55:17;10.80;86.80
26821;DHT22;37186;51.394;5.454;2022-11-23T03:58:17;10.80;86.80
26821;DHT22;37186;51.394;5.454;2022-11-23T04:01:18;10.80;86.80
26821;DHT22;37186;51.394;5.454;2022-11-23T04:04:19;10.80;86.80
26821;DHT22;37186;51.394;5.454;2022-11-23T04:07:20;10.80;86.80
26821;DHT22;37186;51.394;5.454;2022-11-23T04:10:21;10.80;86.70
26821;DHT22;37186;51.394;5.454;2022-11-23T04:13:21;10.80;86.80
26821;DHT22;37186;51.394;5.454;2022-11-23T04:16:21;10.80;86.80
26821;DHT22;37186;51.394;5.454;2022-11-23T04:19:22;10.80;86.80
26821;DHT22;37186;51.394;5.454;2022-11-23T04:22:23;10.80;86.80
26821;DHT22;37186;51.394;5.454;2022-11-23T04:25:23;10.80;86.80
26821;DHT22;37186;51.394;5.454;2022-11-23T04:28:24;10.80;86.80
26821;DHT22;37186;51.394;5.454;2022-11-23T04:31:24;10.80;86.80
26821;DHT22;37186;51.394;5.454;2022-11-23T04:34:25;10.70;86.70
26821;DHT22;37186;51.394;5.454;2022-11-23T04:37:25;10.80;86.70
26821;DHT22;37186;51.394;5.454;2022-11-23T04:40:26;10.80;86.70
26821;DHT22;37186;51.394;5.454;2022-11-23T04:43:26;10.70;86.70
26821;DHT22;37186;51.394;5.454;2022-11-23T04:46:27;10.70;86.70
26821;DHT22;37186;51.394;5.454;2022-11-23T04:49:28;10.70;86.70
26821;DHT22;37186;51.394;5.454;2022-11-23T04:52:29;10.70;86.70
26821;DHT22;37186;51.394;5.454;2022-11-23T04:55:29;10.70;86.60
26821;DHT22;37186;51.394;5.454;2022-11-23T04:58:31;10.70;86.60
26821;DHT22;37186;51.394;5.454;2022-11-23T05:01:31;10.70;86.60
26821;DHT22;37186;51.394;5.454;2022-11-23T05:04:32;10.70;86.60
26821;DHT22;37186;51.394;5.454;2022-11-23T05:07:33;10.70;86.60
26821;DHT22;37186;51.394;5.454;2022-11-23T05:10:34;10.60;87.30
26821;DHT22;37186;51.394;5.454;2022-11-23T05:13:35;10.60;86.40
26821;DHT22;37186;51.394;5.454;2022-11-23T05:16:36;10.60;86.40
26821;DHT22;37186;51.394;5.454;2022-11-23T05:19:36;10.60;86.40
26821;DHT22;37186;51.394;5.454;2022-11-23T05:22:37;10.60;86.50
26821;DHT22;37186;51.394;5.454;2022-11-23T05:25:37;10.60;86.50
26821;DHT22;37186;51.394;5.454;2022-11-23T05:28:38;10.60;86.60
26821;DHT22;37186;51.394;5.454;2022-11-23T05:31:39;10.50;86.50
26821;DHT22;37186;51.394;5.454;2022-11-23T05:34:39;10.50;86.60
26821;DHT22;37186;51.394;5.454;2022-11-23T05:37:40;10.50;86.60
26821;DHT22;37186;51.394;5.454;2022-11-23T05:40:41;10.50;86.60
26821;DHT22;37186;51.394;5.454;2022-11-23T05:43:41;10.50;86.60
26821;DHT22;37186;51.394;5.454;2022-11-23T05:46:42;10.50;86.60
26821;DHT22;37186;51.394;5.454;2022-11-23T05:49:42;10.50;86.70
26821;DHT22;37186;51.394;5.454;2022-11-23T05:52:43;10.50;86.60
26821;DHT22;37186;51.394;5.454;2022-11-23T05:55:44;10.50;86.60
26821;DHT22;37186;51.394;5.454;2022-11-23T05:58:48;10.50;86.60
26821;DHT22;37186;51.394;5.454;2022-11-23T06:01:48;10.50;86.70
26821;DHT22;37186;51.394;5.454;2022-11-23T06:04:49;10.50;86.60
26821;DHT22;37186;51.394;5.454;2022-11-23T06:07:52;10.40;86.50
26821;DHT22;37186;51.394;5.454;2022-11-23T06:10:53;10.50;86.60
26821;DHT22;37186;51.394;5.454;2022-11-23T06:13:53;10.50;86.60
26821;DHT22;37186;51.394;5.454;2022-11-23T06:16:54;10.40;86.60
26821;DHT22;37186;51.394;5.454;2022-11-23T06:19:54;10.40;86.50
26821;DHT22;37186;51.394;5.454;2022-11-23T06:22:55;10.40;86.60
26821;DHT22;37186;51.394;5.454;2022-11-23T06:25:59;10.50;86.70
26821;DHT22;37186;51.394;5.454;2022-11-23T06:29:00;10.50;86.70
26821;DHT22;37186;51.394;5.454;2022-11-23T06:32:00;10.50;86.70
26821;DHT22;37186;51.394;5.454;2022-11-23T06:35:01;10.50;86.70
26821;DHT22;37186;51.394;5.454;2022-11-23T06:38:02;10.40;86.60
26821;DHT22;37186;51.394;5.454;2022-11-23T06:41:03;10.40;86.60
26821;DHT22;37186;51.394;5.454;2022-11-23T06:44:04;10.40;86.60
26821;DHT22;37186;51.394;5.454;2022-11-23T06:47:05;10.40;86.60
26821;DHT22;37186;51.394;5.454;2022-11-23T06:50:06;10.50;86.70
26821;DHT22;37186;51.394;5.454;2022-11-23T06:53:07;10.40;86.50
26821;DHT22;37186;51.394;5.454;2022-11-23T06:56:10;10.40;86.50
26821;DHT22;37186;51.394;5.454;2022-11-23T06:59:11;10.40;86.50
26821;DHT22;37186;51.394;5.454;2022-11-23T07:02:13;10.40;86.50
26821;DHT22;37186;51.394;5.454;2022-11-23T07:05:14;10.40;86.50
26821;DHT22;37186;51.394;5.454;2022-11-23T07:08:14;10.40;86.40
26821;DHT22;37186;51.394;5.454;2022-11-23T07:11:15;10.40;86.40
26821;DHT22;37186;51.394;5.454;2022-11-23T07:14:15;10.30;86.30
26821;DHT22;37186;51.394;5.454;2022-11-23T07:17:16;10.30;86.40
26821;DHT22;37186;51.394;5.454;2022-11-23T07:20:16;10.30;86.40
26821;DHT22;37186;51.394;5.454;2022-11-23T07:23:17;10.30;86.40
26821;DHT22;37186;51.394;5.454;2022-11-23T07:26:17;10.20;86.20
26821;DHT22;37186;51.394;5.454;2022-11-23T07:29:18;10.30;86.40
26821;DHT22;37186;51.394;5.454;2022-11-23T07:32:18;10.30;86.40
26821;DHT22;37186;51.394;5.454;2022-11-23T07:35:19;10.20;86.20
26821;DHT22;37186;51.394;5.454;2022-11-23T07:38:20;10.20;86.30
26821;DHT22;37186;51.394;5.454;2022-11-23T07:41:21;10.20;86.40
26821;DHT22;37186;51.394;5.454;2022-11-23T07:44:21;10.20;86.40
26821;DHT22;37186;51.394;5.454;2022-11-23T07:47:22;10.20;86.30
26821;DHT22;37186;51.394;5.454;2022-11-23T07:50:23;10.20;86.40
26821;DHT22;37186;51.394;5.454;2022-11-23T07:53:23;10.10;86.30
26821;DHT22;37186;51.394;5.454;2022-11-23T07:56:24;10.10;86.30
26821;DHT22;37186;51.394;5.454;2022-11-23T07:59:24;10.10;86.30
26821;DHT22;37186;51.394;5.454;2022-11-23T08:02:25;10.10;86.30
26821;DHT22;37186;51.394;5.454;2022-11-23T08:05:25;10.00;86.30
26821;DHT22;37186;51.394;5.454;2022-11-23T08:08:26;10.10;86.30
26821;DHT22;37186;51.394;5.454;2022-11-23T08:11:26;10.00;86.30
26821;DHT22;37186;51.394;5.454;2022-11-23T08:14:27;10.00;86.30
26821;DHT22;37186;51.394;5.454;2022-11-23T08:17:27;10.00;86.30
26821;DHT22;37186;51.394;5.454;2022-11-23T08:20:29;10.00;86.40
26821;DHT22;37186;51.394;5.454;2022-11-23T08:23:30;10.00;86.20
26821;DHT22;37186;51.394;5.454;2022-11-23T08:26:30;10.00;86.40
26821;DHT22;37186;51.394;5.454;2022-11-23T08:29:31;10.00;86.30
26821;DHT22;37186;51.394;5.454;2022-11-23T08:32:31;10.00;86.30
26821;DHT22;37186;51.394;5.454;2022-11-23T08:35:33;10.00;86.40
26821;DHT22;37186;51.394;5.454;2022-11-23T08:38:34;10.00;86.40
26821;DHT22;37186;51.394;5.454;2022-11-23T08:41:35;10.00;86.20
26821;DHT22;37186;51.394;5.454;2022-11-23T08:44:36;10.00;86.30
26821;DHT22;37186;51.394;5.454;2022-11-23T08:47:37;9.90;86.40
26821;DHT22;37186;51.394;5.454;2022-11-23T08:50:37;9.90;86.40
26821;DHT22;37186;51.394;5.454;2022-11-23T08:53:38;10.00;86.30
26821;DHT22;37186;51.394;5.454;2022-11-23T08:56:39;9.90;86.20
26821;DHT22;37186;51.394;5.454;2022-11-23T08:59:39;10.00;86.20
26821;DHT22;37186;51.394;5.454;2022-11-23T09:02:40;10.00;86.30
26821;DHT22;37186;51.394;5.454;2022-11-23T09:05:40;10.00;86.40
26821;DHT22;37186;51.394;5.454;2022-11-23T09:08:41;10.00;86.40
26821;DHT22;37186;51.394;5.454;2022-11-23T09:11:42;10.00;86.20
26821;DHT22;37186;51.394;5.454;2022-11-23T09:14:42;10.00;86.20
26821;DHT22;37186;51.394;5.454;2022-11-23T09:17:43;10.00;86.30
26821;DHT22;37186;51.394;5.454;2022-11-23T09:20:44;10.00;86.20
26821;DHT22;37186;51.394;5.454;2022-11-23T09:23:44;10.00;86.20
26821;DHT22;37186;51.394;5.454;2022-11-23T09:26:45;10.00;86.20
26821;DHT22;37186;51.394;5.454;2022-11-23T09:29:45;10.00;86.30
26821;DHT22;37186;51.394;5.454;2022-11-23T09:32:46;10.00;86.40
26821;DHT22;37186;51.394;5.454;2022-11-23T09:35:46;10.00;86.20
26821;DHT22;37186;51.394;5.454;2022-11-23T09:38:48;10.00;86.20
26821;DHT22;37186;51.394;5.454;2022-11-23T09:42:22;10.00;86.20
26821;DHT22;37186;51.394;5.454;2022-11-23T09:45:44;10.00;86.30
26821;DHT22;37186;51.394;5.454;2022-11-23T09:49:08;10.00;86.20
26821;DHT22;37186;51.394;5.454;2022-11-23T09:52:15;10.10;86.30
26821;DHT22;37186;51.394;5.454;2022-11-23T09:55:35;10.10;86.20
26821;DHT22;37186;51.394;5.454;2022-11-23T09:58:38;10.00;86.20
26821;DHT22;37186;51.394;5.454;2022-11-23T10:01:40;10.00;86.20
26821;DHT22;37186;51.394;5.454;2022-11-23T10:04:42;10.10;86.20
26821;DHT22;37186;51.394;5.454;2022-11-23T10:11:16;10.10;86.30
26821;DHT22;37186;51.394;5.454;2022-11-23T10:17:44;10.10;86.40
26821;DHT22;37186;51.394;5.454;2022-11-23T10:24:23;10.20;86.40
26821;DHT22;37186;51.394;5.454;2022-11-23T10:27:28;10.10;86.20
26821;DHT22;37186;51.394;5.454;2022-11-23T10:30:29;10.20;86.40
26821;DHT22;37186;51.394;5.454;2022-11-23T10:33:35;10.20;86.40
26821;DHT22;37186;51.394;5.454;2022-11-23T10:36:38;10.20;86.40
26821;DHT22;37186;51.394;5.454;2022-11-23T10:39:39;10.20;86.40
26821;DHT22;37186;51.394;5.454;2022-11-23T10:42:58;10.20;86.30
26821;DHT22;37186;51.394;5.454;2022-11-23T10:49:28;10.30;86.10
26821;DHT22;37186;51.394;5.454;2022-11-23T10:52:31;10.30;86.20
26821;DHT22;37186;51.394;5.454;2022-11-23T10:55:46;10.40;86.30
26821;DHT22;37186;51.394;5.454;2022-11-23T10:58:46;10.40;86.40
26821;DHT22;37186;51.394;5.454;2022-11-23T11:02:09;10.40;86.40
26821;DHT22;37186;51.394;5.454;2022-11-23T11:08:32;10.50;86.60
26821;DHT22;37186;51.394;5.454;2022-11-23T11:11:36;10.50;86.60
26821;DHT22;37186;51.394;5.454;2022-11-23T11:14:39;10.50;86.60
26821;DHT22;37186;51.394;5.454;2022-11-23T11:17:57;10.50;86.40
26821;DHT22;37186;51.394;5.454;2022-11-23T11:21:01;10.60;86.50
26821;DHT22;37186;51.394;5.454;2022-11-23T11:24:04;10.60;87.30
26821;DHT22;37186;51.394;5.454;2022-11-23T11:27:19;10.60;86.40
26821;DHT22;37186;51.394;5.454;2022-11-23T11:30:22;10.60;86.30
26821;DHT22;37186;51.394;5.454;2022-11-23T11:33:34;10.70;86.40
26821;DHT22;37186;51.394;5.454;2022-11-23T11:36:46;10.70;86.40
26821;DHT22;37186;51.394;5.454;2022-11-23T11:39:50;10.70;86.30
26821;DHT22;37186;51.394;5.454;2022-11-23T11:45:58;10.80;86.40
26821;DHT22;37186;51.394;5.454;2022-11-23T11:49:15;10.90;86.40
26821;DHT22;37186;51.394;5.454;2022-11-23T11:52:24;10.90;86.20
26821;DHT22;37186;51.394;5.454;2022-11-23T11:58:53;11.00;86.40
26821;DHT22;37186;51.394;5.454;2022-11-23T12:02:21;11.00;86.30
26821;DHT22;37186;51.394;5.454;2022-11-23T12:05:25;11.00;86.40
26821;DHT22;37186;51.394;5.454;2022-11-23T12:08:48;11.00;86.30
26821;DHT22;37186;51.394;5.454;2022-11-23T12:11:49;11.10;86.40
26821;DHT22;37186;51.394;5.454;2022-11-23T12:14:50;11.10;86.40
26821;DHT22;37186;51.394;5.454;2022-11-23T12:17:59;11.10;86.40
26821;DHT22;37186;51.394;5.454;2022-11-23T12:21:15;11.20;86.20
26821;DHT22;37186;51.394;5.454;2022-11-23T12:24:42;11.20;86.10
26821;DHT22;37186;51.394;5.454;2022-11-23T12:31:13;11.20;86.20
26821;DHT22;37186;51.394;5.454;2022-11-23T12:41:17;11.40;86.20
26821;DHT22;37186;51.394;5.454;2022-11-23T12:57:35;11.40;86.20
26821;DHT22;37186;51.394;5.454;2022-11-23T13:00:54;11.50;86.10
26821;DHT22;37186;51.394;5.454;2022-11-23T13:23:54;11.60;86.00
26821;DHT22;37186;51.394;5.454;2022-11-23T13:33:37;11.60;86.00
26821;DHT22;37186;51.394;5.454;2022-11-23T13:36:41;11.60;86.00
26821;DHT22;37186;51.394;5.454;2022-11-23T13:42:47;11.60;85.90
26821;DHT22;37186;51.394;5.454;2022-11-23T13:46:10;11.60;85.60
26821;DHT22;37186;51.394;5.454;2022-11-23T13:49:30;11.60;85.90
26821;DHT22;37186;51.394;5.454;2022-11-23T13:52:32;11.60;85.90
26821;DHT22;37186;51.394;5.454;2022-11-23T13:55:36;11.60;85.90
26821;DHT22;37186;51.394;5.454;2022-11-23T13:58:38;11.60;86.20
26821;DHT22;37186;51.394;5.454;2022-11-23T14:05:30;11.60;85.80
26821;DHT22;37186;51.394;5.454;2022-11-23T14:09:22;11.60;85.90
26821;DHT22;37186;51.394;5.454;2022-11-23T14:15:37;11.60;85.90
26821;DHT22;37186;51.394;5.454;2022-11-23T14:19:04;11.60;85.80
26821;DHT22;37186;51.394;5.454;2022-11-23T14:22:25;11.60;85.90
26821;DHT22;37186;51.394;5.454;2022-11-23T14:25:46;11.60;85.80
26821;DHT22;37186;51.394;5.454;2022-11-23T14:38:39;11.50;85.80
26821;DHT22;37186;51.394;5.454;2022-11-23T14:41:44;11.50;85.70
26821;DHT22;37186;51.394;5.454;2022-11-23T14:44:48;11.50;85.80
26821;DHT22;37186;51.394;5.454;2022-11-23T14:47:50;11.50;85.90
26821;DHT22;37186;51.394;5.454;2022-11-23T14:51:21;11.50;85.80
26821;DHT22;37186;51.394;5.454;2022-11-23T14:54:20;11.50;85.80
26821;DHT22;37186;51.394;5.454;2022-11-23T14:57:22;11.40;85.80
26821;DHT22;37186;51.394;5.454;2022-11-23T15:03:31;11.40;85.90
26821;DHT22;37186;51.394;5.454;2022-11-23T15:06:32;11.40;86.60
26821;DHT22;37186;51.394;5.454;2022-11-23T15:13:24;11.40;85.90
26821;DHT22;37186;51.394;5.454;2022-11-23T15:16:25;11.30;85.80
26821;DHT22;37186;51.394;5.454;2022-11-23T15:19:27;11.30;85.90
26821;DHT22;37186;51.394;5.454;2022-11-23T15:22:36;11.30;85.90
26821;DHT22;37186;51.394;5.454;2022-11-23T15:25:36;11.30;85.90
26821;DHT22;37186;51.394;5.454;2022-11-23T15:28:37;11.30;85.90
26821;DHT22;37186;51.394;5.454;2022-11-23T15:31:38;11.30;85.90
26821;DHT22;37186;51.394;5.454;2022-11-23T15:34:39;11.30;86.00
26821;DHT22;37186;51.394;5.454;2022-11-23T15:37:44;11.30;86.00
26821;DHT22;37186;51.394;5.454;2022-11-23T15:40:48;11.20;85.90
26821;DHT22;37186;51.394;5.454;2022-11-23T15:43:59;11.20;85.90
26821;DHT22;37186;51.394;5.454;2022-11-23T15:47:05;11.20;85.90
26821;DHT22;37186;51.394;5.454;2022-11-23T15:50:08;11.20;86.00
26821;DHT22;37186;51.394;5.454;2022-11-23T15:53:09;11.20;86.00
26821;DHT22;37186;51.394;5.454;2022-11-23T15:56:33;11.20;86.10
26821;DHT22;37186;51.394;5.454;2022-11-23T15:59:49;11.20;86.10
26821;DHT22;37186;51.394;5.454;2022-11-23T16:03:19;11.10;86.00
26821;DHT22;37186;51.394;5.454;2022-11-23T16:06:39;11.10;86.40
26821;DHT22;37186;51.394;5.454;2022-11-23T16:09:44;11.10;86.00
26821;DHT22;37186;51.394;5.454;2022-11-23T16:12:50;11.10;86.00
26821;DHT22;37186;51.394;5.454;2022-11-23T16:15:58;11.10;86.00
26821;DHT22;37186;51.394;5.454;2022-11-23T16:18:59;11.10;86.10
26821;DHT22;37186;51.394;5.454;2022-11-23T16:22:03;11.00;86.00
26821;DHT22;37186;51.394;5.454;2022-11-23T16:25:06;11.00;86.10
26821;DHT22;37186;51.394;5.454;2022-11-23T16:28:24;11.00;85.90
26821;DHT22;37186;51.394;5.454;2022-11-23T16:31:29;11.00;86.00
26821;DHT22;37186;51.394;5.454;2022-11-23T16:34:29;11.00;86.00
26821;DHT22;37186;51.394;5.454;2022-11-23T16:37:30;11.00;86.10
26821;DHT22;37186;51.394;5.454;2022-11-23T16:40:31;11.00;86.10
26821;DHT22;37186;51.394;5.454;2022-11-23T16:43:32;11.00;86.10
26821;DHT22;37186;51.394;5.454;2022-11-23T16:46:32;11.00;86.00
26821;DHT22;37186;51.394;5.454;2022-11-23T16:49:33;11.00;86.10
26821;DHT22;37186;51.394;5.454;2022-11-23T16:52:33;11.00;86.10
26821;DHT22;37186;51.394;5.454;2022-11-23T16:55:36;11.00;86.20
26821;DHT22;37186;51.394;5.454;2022-11-23T16:58:36;11.00;86.10
26821;DHT22;37186;51.394;5.454;2022-11-23T17:01:37;11.00;86.10
26821;DHT22;37186;51.394;5.454;2022-11-23T17:04:39;10.90;86.10
26821;DHT22;37186;51.394;5.454;2022-11-23T17:07:39;10.90;86.10
26821;DHT22;37186;51.394;5.454;2022-11-23T17:10:40;10.90;86.10
26821;DHT22;37186;51.394;5.454;2022-11-23T17:13:41;10.90;86.10
26821;DHT22;37186;51.394;5.454;2022-11-23T17:16:44;10.90;86.10
26821;DHT22;37186;51.394;5.454;2022-11-23T17:19:45;10.90;86.20
26821;DHT22;37186;51.394;5.454;2022-11-23T17:22:48;10.90;86.20
26821;DHT22;37186;51.394;5.454;2022-11-23T17:25:51;10.90;86.10
26821;DHT22;37186;51.394;5.454;2022-11-23T17:28:52;10.90;86.20
26821;DHT22;37186;51.394;5.454;2022-11-23T17:31:53;10.90;86.30
26821;DHT22;37186;51.394;5.454;2022-11-23T17:34:53;10.90;86.20
26821;DHT22;37186;51.394;5.454;2022-11-23T17:37:54;10.90;86.20
26821;DHT22;37186;51.394;5.454;2022-11-23T17:40:55;10.90;86.20
26821;DHT22;37186;51.394;5.454;2022-11-23T17:43:55;10.90;86.20
26821;DHT22;37186;51.394;5.454;2022-11-23T17:47:00;10.90;86.20
26821;DHT22;37186;51.394;5.454;2022-11-23T17:50:01;10.80;86.10
26821;DHT22;37186;51.394;5.454;2022-11-23T17:53:02;10.80;86.10
26821;DHT22;37186;51.394;5.454;2022-11-23T17:56:03;10.80;86.10
26821;DHT22;37186;51.394;5.454;2022-11-23T17:59:04;10.80;86.10
26821;DHT22;37186;51.394;5.454;2022-11-23T18:02:05;10.80;86.20
26821;DHT22;37186;51.394;5.454;2022-11-23T18:05:06;10.80;86.10
26821;DHT22;37186;51.394;5.454;2022-11-23T18:08:07;10.80;86.10
26821;DHT22;37186;51.394;5.454;2022-11-23T18:11:08;10.80;86.10
26821;DHT22;37186;51.394;5.454;2022-11-23T18:14:08;10.70;86.00
26821;DHT22;37186;51.394;5.454;2022-11-23T18:17:09;10.70;85.90
26821;DHT22;37186;51.394;5.454;2022-11-23T18:20:10;10.70;85.90
26821;DHT22;37186;51.394;5.454;2022-11-23T18:23:11;10.70;85.90
26821;DHT22;37186;51.394;5.454;2022-11-23T18:26:17;10.70;86.00
26821;DHT22;37186;51.394;5.454;2022-11-23T18:29:18;10.60;85.90
26821;DHT22;37186;51.394;5.454;2022-11-23T18:32:19;10.70;86.00
26821;DHT22;37186;51.394;5.454;2022-11-23T18:35:19;10.60;85.90
26821;DHT22;37186;51.394;5.454;2022-11-23T18:38:20;10.60;85.90
26821;DHT22;37186;51.394;5.454;2022-11-23T18:41:20;10.60;85.90
26821;DHT22;37186;51.394;5.454;2022-11-23T18:44:21;10.60;85.90
26821;DHT22;37186;51.394;5.454;2022-11-23T18:47:21;10.50;85.90
26821;DHT22;37186;51.394;5.454;2022-11-23T18:50:23;10.50;86.00
26821;DHT22;37186;51.394;5.454;2022-11-23T18:53:23;10.50;85.90
26821;DHT22;37186;51.394;5.454;2022-11-23T18:56:24;10.50;85.90
26821;DHT22;37186;51.394;5.454;2022-11-23T18:59:24;10.50;85.90
26821;DHT22;37186;51.394;5.454;2022-11-23T19:02:25;10.50;86.00
26821;DHT22;37186;51.394;5.454;2022-11-23T19:05:29;10.40;85.90
26821;DHT22;37186;51.394;5.454;2022-11-23T19:08:30;10.40;85.90
26821;DHT22;37186;51.394;5.454;2022-11-23T19:11:31;10.40;85.90
26821;DHT22;37186;51.394;5.454;2022-11-23T19:14:32;10.40;85.90
26821;DHT22;37186;51.394;5.454;2022-11-23T19:17:33;10.40;85.90
26821;DHT22;37186;51.394;5.454;2022-11-23T19:20:33;10.30;85.90
26821;DHT22;37186;51.394;5.454;2022-11-23T19:23:34;10.30;85.90
26821;DHT22;37186;51.394;5.454;2022-11-23T19:26:35;10.30;85.90
26821;DHT22;37186;51.394;5.454;2022-11-23T19:29:36;10.30;86.00
26821;DHT22;37186;51.394;5.454;2022-11-23T19:32:36;10.30;85.90
26821;DHT22;37186;51.394;5.454;2022-11-23T19:35:37;10.30;85.90
26821;DHT22;37186;51.394;5.454;2022-11-23T19:38:38;10.20;85.90
26821;DHT22;37186;51.394;5.454;2022-11-23T19:41:38;10.30;86.00
26821;DHT22;37186;51.394;5.454;2022-11-23T19:44:39;10.30;86.00
26821;DHT22;37186;51.394;5.454;2022-11-23T19:47:40;10.20;86.00
26821;DHT22;37186;51.394;5.454;2022-11-23T19:50:40;10.20;86.00
26821;DHT22;37186;51.394;5.454;2022-11-23T19:53:42;10.20;86.00
26821;DHT22;37186;51.394;5.454;2022-11-23T19:56:42;10.30;86.10
26821;DHT22;37186;51.394;5.454;2022-11-23T19:59:43;10.20;86.20
26821;DHT22;37186;51.394;5.454;2022-11-23T20:02:43;10.30;86.10
26821;DHT22;37186;51.394;5.454;2022-11-23T20:05:54;10.20;86.10
26821;DHT22;37186;51.394;5.454;2022-11-23T20:08:59;10.20;86.00
26821;DHT22;37186;51.394;5.454;2022-11-23T20:12:00;10.20;86.10
26821;DHT22;37186;51.394;5.454;2022-11-23T20:15:01;10.20;86.00
26821;DHT22;37186;51.394;5.454;2022-11-23T20:18:02;10.20;86.10
26821;DHT22;37186;51.394;5.454;2022-11-23T20:21:03;10.30;86.10
26821;DHT22;37186;51.394;5.454;2022-11-23T20:24:10;10.20;86.00
26821;DHT22;37186;51.394;5.454;2022-11-23T20:27:11;10.20;86.10
26821;DHT22;37186;51.394;5.454;2022-11-23T20:30:11;10.20;86.00
26821;DHT22;37186;51.394;5.454;2022-11-23T20:33:12;10.20;86.10
26821;DHT22;37186;51.394;5.454;2022-11-23T20:39:22;10.20;86.00
26821;DHT22;37186;51.394;5.454;2022-11-23T20:42:23;10.20;86.10
26821;DHT22;37186;51.394;5.454;2022-11-23T20:45:31;10.20;86.00
26821;DHT22;37186;51.394;5.454;2022-11-23T20:48:32;10.20;86.10
26821;DHT22;37186;51.394;5.454;2022-11-23T20:51:34;10.20;86.10
26821;DHT22;37186;51.394;5.454;2022-11-23T20:54:35;10.20;86.00
26821;DHT22;37186;51.394;5.454;2022-11-23T20:57:35;10.10;86.00
26821;DHT22;37186;51.394;5.454;2022-11-23T21:00:36;10.20;86.10